Time;durP1;ratioP1;P1;durP2;ratioP2;P2;SDS_P1;SDS_P2;PMS_P1;PMS_P2;Temp;Humidity;BMP_temperature;BMP_pressure;BME280_temperature;BME280_humidity;BME280_pressure;Samples;Min_cycle;Max_cycle;Signal;HPM_P1;HPM_P2
2021/09/16 00:00:50;;;;;;;;;59.00;48.75;;;;;13.98;65.74;101389.06;4896956;29;11657;-73
2021/09/16 00:03:32;;;;;;;;;60.50;49.75;;;;;13.94;66.19;101385.31;4897533;29;12407;-73
2021/09/16 00:06:27;;;;;;;;;56.00;47.50;;;;;14.07;66.03;101389.81;4884511;29;11729;-72
2021/09/16 00:08:55;;;;;;;;;57.75;46.50;;;;;14.07;65.87;101394.56;4897716;29;11769;-73
2021/09/16 00:11:51;;;;;;;;;53.25;44.50;;;;;13.95;66.30;101397.25;4896731;29;11674;-73
2021/09/16 00:14:46;;;;;;;;;60.00;49.00;;;;;13.97;66.12;101392.19;4896865;29;11636;-73
2021/09/16 00:17:42;;;;;;;;;62.00;48.25;;;;;13.92;66.31;101395.97;4896578;29;11658;-73
2021/09/16 00:20:38;;;;;;;;;58.75;45.75;;;;;13.90;66.40;101403.84;4896686;29;11731;-73
2021/09/16 00:23:16;;;;;;;;;58.25;46.75;;;;;13.79;67.44;101399.81;4882659;29;11685;-73
2021/09/16 00:26:05;;;;;;;;;51.75;43.75;;;;;13.85;67.57;101395.69;4859510;29;11705;-73
2021/09/16 00:28:33;;;;;;;;;47.00;41.25;;;;;13.76;67.82;101403.25;4860319;29;11679;-73
2021/09/16 00:31:28;;;;;;;;;55.25;45.50;;;;;13.72;67.49;101396.72;4859341;29;11677;-73
2021/09/16 00:33:57;;;;;;;;;55.25;45.00;;;;;13.87;67.24;101402.53;4860421;29;11695;-73
2021/09/16 00:36:53;;;;;;;;;49.75;43.00;;;;;13.84;67.53;101402.41;4860789;29;12535;-72
2021/09/16 00:39:20;;;;;;;;;56.75;45.00;;;;;13.85;68.58;101404.03;4878328;29;11675;-74
2021/09/16 00:42:17;;;;;;;;;55.00;45.25;;;;;13.94;68.13;101399.22;4881702;29;11709;-72
2021/09/16 00:45:12;;;;;;;;;54.25;46.00;;;;;13.98;67.59;101407.72;4881386;29;12161;-72
2021/09/16 00:48:08;;;;;;;;;57.00;45.75;;;;;13.94;67.87;101403.97;4869003;29;11648;-72
2021/09/16 00:50:37;;;;;;;;;55.50;45.75;;;;;13.81;68.21;101406.69;4882349;29;11825;-73
2021/09/16 00:53:33;;;;;;;;;47.75;40.75;;;;;13.79;68.23;101410.94;4897640;29;11643;-73
2021/09/16 00:56:01;;;;;;;;;54.00;43.75;;;;;13.82;67.83;101407.50;4901256;29;11655;-73
2021/09/16 00:58:59;;;;;;;;;52.75;44.00;;;;;13.92;67.42;101398.75;4888079;29;11809;-74
2021/09/16 01:01:55;;;;;;;;;47.00;40.25;;;;;13.81;67.40;101408.66;4900762;29;11641;-74
2021/09/16 01:04:50;;;;;;;;;56.50;44.50;;;;;13.76;67.42;101403.25;4900154;29;11736;-73
2021/09/16 01:07:46;;;;;;;;;51.00;44.00;;;;;13.81;67.60;101400.31;4898375;29;11673;-73
2021/09/16 01:10:16;;;;;;;;;50.75;43.00;;;;;13.70;67.48;101407.38;4882833;29;11671;-73
2021/09/16 01:13:12;;;;;;;;;48.50;40.25;;;;;13.63;67.72;101411.50;4899972;29;11674;-73
2021/09/16 01:16:07;;;;;;;;;47.75;40.50;;;;;13.56;68.09;101413.16;4899598;29;11418;-73
2021/09/16 01:19:03;;;;;;;;;53.50;41.50;;;;;13.69;67.54;101419.66;4899986;29;11771;-73
2021/09/16 01:21:59;;;;;;;;;51.00;43.75;;;;;13.74;66.82;101419.47;4882525;29;11425;-73
2021/09/16 01:24:27;;;;;;;;;49.50;40.50;;;;;13.64;67.07;101413.13;4882051;29;12462;-73
2021/09/16 01:27:23;;;;;;;;;47.75;40.25;;;;;13.71;66.91;101422.91;4880511;29;11666;-73
2021/09/16 01:30:18;;;;;;;;;48.75;41.75;;;;;13.60;66.57;101412.16;4881389;29;11675;-73
2021/09/16 01:33:14;;;;;;;;;51.75;44.50;;;;;13.63;66.21;101411.50;4880765;29;11669;-73
2021/09/16 01:36:10;;;;;;;;;53.00;44.00;;;;;13.60;66.20;101411.34;4880969;29;11673;-73
2021/09/16 01:39:09;;;;;;;;;51.00;43.00;;;;;13.64;65.83;101412.31;4880557;29;11690;-73
2021/09/16 01:41:37;;;;;;;;;52.00;43.50;;;;;13.70;66.06;101421.28;4881508;29;11667;-73
2021/09/16 01:44:33;;;;;;;;;54.75;45.00;;;;;13.68;66.02;101415.25;4881400;29;12414;-73
2021/09/16 01:47:29;;;;;;;;;43.75;37.00;;;;;13.69;65.50;101414.91;4880250;29;11770;-73
2021/09/16 01:50:26;;;;;;;;;55.00;46.25;;;;;13.50;66.31;101415.31;4880408;29;11688;-73
2021/09/16 01:53:21;;;;;;;;;53.75;44.00;;;;;13.38;66.58;101415.19;4895033;29;11754;-73
2021/09/16 01:56:17;;;;;;;;;46.50;39.75;;;;;13.39;66.58;101416.00;4886886;29;11674;-73
2021/09/16 01:59:12;;;;;;;;;55.50;44.50;;;;;13.52;66.03;101418.56;4899075;29;11761;-73
2021/09/16 02:02:08;;;;;;;;;50.75;43.50;;;;;13.47;65.95;101418.75;4898880;29;11644;-73
2021/09/16 02:05:04;;;;;;;;;52.00;43.25;;;;;13.49;66.19;101410.06;4899201;29;11641;-72
2021/09/16 02:08:00;;;;;;;;;58.25;48.50;;;;;13.40;66.36;101414.84;4885814;29;11648;-73
2021/09/16 02:10:42;;;;;;;;;53.25;45.25;;;;;13.41;65.82;101413.72;4882754;29;11648;-73
2021/09/16 02:13:37;;;;;;;;;54.00;45.75;;;;;13.47;65.76;101410.41;4898850;29;11682;-72
2021/09/16 02:16:33;;;;;;;;;56.25;45.00;;;;;13.39;65.84;101407.69;4880472;29;11701;-72
2021/09/16 02:19:28;;;;;;;;;57.00;44.75;;;;;13.49;65.37;101410.88;4879250;29;11425;-72
2021/09/16 02:22:05;;;;;;;;;60.25;50.25;;;;;13.50;65.22;101415.31;4885017;29;11661;-72
2021/09/16 02:25:00;;;;;;;;;55.75;45.50;;;;;13.34;65.73;101426.19;4868516;29;12432;-73
2021/09/16 02:27:56;;;;;;;;;54.50;45.25;;;;;13.33;65.98;101412.59;4880171;29;11699;-73
2021/09/16 02:30:51;;;;;;;;;51.75;43.00;;;;;13.09;66.74;101408.38;4867189;29;11692;-73
2021/09/16 02:33:47;;;;;;;;;50.75;43.75;;;;;13.19;66.60;101414.72;4867315;29;11750;-73
2021/09/16 02:36:42;;;;;;;;;49.75;43.00;;;;;13.22;66.97;101414.09;4879720;29;11755;-73
2021/09/16 02:39:38;;;;;;;;;52.25;44.50;;;;;13.14;66.67;101418.50;4879555;29;12525;-73
2021/09/16 02:42:34;;;;;;;;;58.50;45.00;;;;;13.09;66.84;101419.50;4879572;29;11684;-73
2021/09/16 02:45:29;;;;;;;;;48.50;41.00;;;;;13.03;66.87;101417.22;4867568;29;12497;-73
2021/09/16 02:48:25;;;;;;;;;57.25;46.00;;;;;13.15;66.51;101416.53;4878525;29;11673;-73
2021/09/16 02:51:21;;;;;;;;;42.75;39.50;;;;;12.96;67.02;101417.75;4879372;29;11720;-73
2021/09/16 02:54:17;;;;;;;;;54.50;45.75;;;;;12.95;66.83;101420.81;4879987;29;11783;-73
2021/09/16 02:57:13;;;;;;;;;50.75;44.50;;;;;12.97;66.91;101416.59;4879885;29;11738;-73
2021/09/16 03:00:09;;;;;;;;;53.50;44.50;;;;;13.04;66.27;101416.09;4879468;29;11677;-74
2021/09/16 03:02:37;;;;;;;;;59.25;48.75;;;;;13.02;66.39;101424.72;4879932;29;12384;-73
2021/09/16 03:05:32;;;;;;;;;58.75;48.50;;;;;13.00;66.50;101431.75;4879471;29;11668;-73
2021/09/16 03:08:28;;;;;;;;;68.50;54.25;;;;;12.76;68.28;101440.63;4882112;29;11649;-73
2021/09/16 03:11:23;;;;;;;;;57.00;47.50;;;;;12.77;68.50;101431.13;4879019;29;11749;-73
2021/09/16 03:14:19;;;;;;;;;60.50;49.25;;;;;12.81;68.53;101434.91;4877801;29;11745;-72
2021/09/16 03:17:15;;;;;;;;;59.25;47.50;;;;;12.76;68.56;101433.09;4888425;29;11759;-73
2021/09/16 03:20:11;;;;;;;;;61.25;48.75;;;;;12.68;68.64;101435.88;4895993;29;12593;-73
2021/09/16 03:22:49;;;;;;;;;59.50;49.00;;;;;12.73;68.25;101435.72;4878963;29;11743;-73
2021/09/16 03:25:45;;;;;;;;;65.00;51.00;;;;;12.67;68.49;101437.84;4878071;29;11715;-73
2021/09/16 03:28:12;;;;;;;;;65.25;51.50;;;;;12.63;68.59;101441.59;4880798;29;11806;-73
2021/09/16 03:31:08;;;;;;;;;53.75;42.75;;;;;12.81;68.49;101446.00;4867024;29;11768;-73
2021/09/16 03:34:04;;;;;;;;;60.50;51.00;;;;;12.77;68.61;101445.84;4879122;29;11868;-74
2021/09/16 03:36:47;;;;;;;;;60.25;47.50;;;;;12.76;68.60;101444.19;4879545;29;11779;-73
2021/09/16 03:39:42;;;;;;;;;66.75;53.25;;;;;12.78;68.89;101447.47;4882454;29;11838;-73
2021/09/16 03:42:38;;;;;;;;;64.00;53.25;;;;;12.76;68.75;101444.19;4866829;29;11709;-73
2021/09/16 03:45:33;;;;;;;;;72.25;57.00;;;;;12.91;68.37;101455.94;4866309;29;11759;-72
2021/09/16 03:48:29;;;;;;;;;70.00;54.25;;;;;12.83;68.56;101457.59;4878336;29;11721;-73
2021/09/16 03:51:24;;;;;;;;;71.75;56.50;;;;;12.81;68.86;101457.13;4878295;29;11744;-74
2021/09/16 03:54:20;;;;;;;;;70.00;58.00;;;;;12.82;68.62;101450.41;4884087;29;11790;-73
2021/09/16 03:57:15;;;;;;;;;73.50;56.25;;;;;12.85;68.74;101457.25;4887526;29;11757;-73
2021/09/16 04:00:12;;;;;;;;;72.00;57.25;;;;;12.86;68.70;101454.16;4882634;29;11756;-73
2021/09/16 04:02:40;;;;;;;;;71.50;57.50;;;;;12.90;68.64;101457.09;4886868;29;11720;-73
2021/09/16 04:05:21;;;;;;;;;66.50;54.75;;;;;12.85;69.51;101458.06;4885074;29;11739;-72
2021/09/16 04:07:49;;;;;;;;;70.75;57.75;;;;;12.81;69.75;101459.88;4865953;29;11740;-73
2021/09/16 04:10:31;;;;;;;;;60.00;48.00;;;;;12.88;69.49;101460.22;4866703;29;11724;-73
2021/09/16 04:13:26;;;;;;;;;69.50;55.25;;;;;12.91;69.86;101465.09;4886294;29;11715;-73
2021/09/16 04:16:22;;;;;;;;;67.00;53.00;;;;;12.98;69.67;101461.81;4885362;29;11743;-73
2021/09/16 04:19:18;;;;;;;;;71.50;56.25;;;;;13.06;69.51;101464.59;4884212;29;11708;-73
2021/09/16 04:22:13;;;;;;;;;71.00;56.00;;;;;13.21;69.42;101457.75;4870818;29;11793;-73
2021/09/16 04:25:09;;;;;;;;;71.50;56.50;;;;;13.38;69.23;101470.75;4894251;29;11707;-73
2021/09/16 04:28:05;;;;;;;;;66.00;53.25;;;;;13.58;69.03;101472.03;4895889;29;11734;-72
2021/09/16 04:31:01;;;;;;;;;52.50;44.00;;;;;13.81;68.06;101472.59;4896290;29;11726;-73
2021/09/16 04:33:57;;;;;;;;;57.50;47.50;;;;;14.18;66.90;101471.75;4894564;29;11649;-72
2021/09/16 04:36:38;;;;;;;;;43.50;37.75;;;;;14.35;65.11;101473.59;4872243;29;11648;-74
2021/09/16 04:39:08;;;;;;;;;37.00;35.00;;;;;14.45;64.03;101466.81;4892818;29;11186;-71
2021/09/16 04:41:48;;;;;;;;;45.50;37.00;;;;;14.56;62.93;101459.72;4864682;29;10926;-71
2021/09/16 04:44:37;;;;;;;;;35.50;34.00;;;;;15.19;64.10;101457.69;4871038;29;10923;-72
2021/09/16 04:47:33;;;;;;;;;39.00;34.75;;;;;15.82;62.50;101466.66;4861270;29;10982;-72
2021/09/16 04:50:29;;;;;;;;;41.50;36.00;;;;;16.23;60.81;101463.97;4861215;29;10638;-72
2021/09/16 04:53:24;;;;;;;;;38.75;36.25;;;;;16.71;61.12;101470.66;4861310;29;10596;-72
2021/09/16 04:56:20;;;;;;;;;34.25;33.00;;;;;17.15;58.59;101469.53;4861376;29;10362;-72
2021/09/16 04:59:15;;;;;;;;;32.50;30.50;;;;;17.23;58.46;101474.16;4861165;29;10175;-72
2021/09/16 05:02:11;;;;;;;;;34.25;32.00;;;;;17.43;56.79;101483.50;4861030;29;9948;-72
2021/09/16 05:05:07;;;;;;;;;32.50;32.00;;;;;17.57;55.97;101485.88;4859956;29;9783;-72
2021/09/16 05:08:02;;;;;;;;;29.00;27.75;;;;;17.70;55.88;101476.25;4860982;29;10066;-72
2021/09/16 05:10:31;;;;;;;;;29.33;29.33;;;;;18.01;54.82;101483.00;4859899;29;10382;-74
2021/09/16 05:13:27;;;;;;;;;33.67;30.67;;;;;18.15;54.51;101479.75;4859681;29;9358;-71
2021/09/16 05:16:09;;;;;;;;;24.00;24.00;;;;;18.12;52.59;101486.06;4873921;29;9466;-73
2021/09/16 05:19:04;;;;;;;;;29.00;28.67;;;;;18.42;51.73;101481.59;4869734;29;9147;-73
2021/09/16 05:22:00;;;;;;;;;31.00;30.00;;;;;18.51;53.06;101482.19;4860071;29;9105;-71
2021/09/16 05:24:55;;;;;;;;;30.67;29.67;;;;;18.83;51.47;101484.91;4864505;29;8951;-73
2021/09/16 05:27:51;;;;;;;;;28.50;28.00;;;;;19.24;50.59;101488.13;4861418;29;9108;-73
2021/09/16 05:30:47;;;;;;;;;18.75;18.50;;;;;19.15;50.08;101482.78;4864328;29;8911;-73
2021/09/16 05:33:42;;;;;;;;;29.50;29.25;;;;;19.11;50.27;101493.13;4862909;29;8857;-73
2021/09/16 05:36:38;;;;;;;;;27.75;26.00;;;;;19.34;51.35;101495.97;4864099;29;8880;-73
2021/09/16 05:39:33;;;;;;;;;23.75;23.75;;;;;19.31;48.76;101494.69;4863260;29;8849;-73
2021/09/16 05:42:29;;;;;;;;;19.50;19.50;;;;;19.49;48.99;101495.06;4862721;29;8876;-73
2021/09/16 05:45:25;;;;;;;;;25.00;24.00;;;;;19.63;49.85;101500.13;4863962;29;8861;-73
2021/09/16 05:48:21;;;;;;;;;29.25;26.75;;;;;19.68;46.28;101511.06;4862587;29;8893;-72
2021/09/16 05:51:16;;;;;;;;;26.00;24.00;;;;;19.72;48.00;101511.94;4862564;29;8925;-73
2021/09/16 05:54:12;;;;;;;;;4.00;3.75;;;;;19.76;48.88;101512.00;4885150;29;9636;-73
2021/09/16 05:57:23;;;;;;;;;33.50;30.00;;;;;19.52;47.19;101502.72;4862871;29;8852;-72
2021/09/16 06:00:18;;;;;;;;;27.00;27.00;;;;;19.39;46.61;101510.47;4863602;29;8865;-72
2021/09/16 06:03:14;;;;;;;;;27.25;25.75;;;;;19.61;49.25;101513.72;4883778;29;8896;-71
2021/09/16 06:06:09;;;;;;;;;28.25;25.75;;;;;19.83;49.41;101515.75;4863478;29;8933;-71
2021/09/16 06:08:37;;;;;;;;;31.75;30.75;;;;;19.87;46.94;101513.00;4892101;29;8881;-72
2021/09/16 06:11:32;;;;;;;;;35.50;33.50;;;;;19.33;46.05;101517.59;4863469;29;8960;-71
2021/09/16 06:14:31;;;;;;;;;41.33;35.67;;;;;19.67;47.51;101518.66;4863078;29;8865;-72
2021/09/16 06:17:27;;;;;;;;;36.00;33.67;;;;;19.59;46.42;101516.09;4872119;29;9146;-72
2021/09/16 06:19:54;;;;;;;;;30.00;30.00;;;;;19.78;48.81;101516.03;4891655;29;9944;-73
2021/09/16 06:22:50;;;;;;;;;30.75;29.75;;;;;19.89;48.37;101522.66;4863273;29;8881;-73
2021/09/16 06:25:46;;;;;;;;;29.75;29.75;;;;;20.16;47.33;101511.47;4872105;29;8853;-71
2021/09/16 06:28:41;;;;;;;;;22.25;20.25;;;;;20.32;44.78;101517.78;4861737;29;8877;-72
2021/09/16 06:31:38;;;;;;;;;25.00;25.00;;;;;20.54;45.70;101514.09;4861710;29;8869;-71
2021/09/16 06:34:05;;;;;;;;;24.50;24.25;;;;;20.73;45.30;101512.38;4861109;29;8937;-71
2021/09/16 06:36:33;;;;;;;;;19.00;18.50;;;;;20.45;42.89;101516.38;4861484;29;8916;-72
2021/09/16 06:39:03;;;;;;;;;20.25;19.25;;;;;20.73;44.79;101516.00;4875652;29;8947;-72
2021/09/16 06:41:31;;;;;;;;;23.50;23.50;;;;;21.00;44.81;101516.72;4862203;29;8865;-72
2021/09/16 06:43:58;;;;;;;;;18.00;18.00;;;;;21.17;43.20;101512.53;4876012;29;8861;-72
2021/09/16 06:46:26;;;;;;;;;17.00;16.50;;;;;21.39;43.06;101522.03;4861571;29;8964;-73
2021/09/16 06:48:54;;;;;;;;;19.00;18.00;;;;;21.32;41.26;101524.81;4861776;29;8954;-73
2021/09/16 06:51:21;;;;;;;;;24.00;22.00;;;;;21.55;40.91;101522.66;4861732;29;8897;-72
2021/09/16 06:54:03;;;;;;;;;21.00;20.50;;;;;21.32;42.25;101522.00;4861556;29;8877;-73
2021/09/16 06:56:58;;;;;;;;;21.50;21.50;;;;;21.45;41.95;101516.88;4871421;29;8971;-73
2021/09/16 06:59:54;;;;;;;;;20.25;20.25;;;;;21.72;40.35;101517.59;4871264;29;8845;-73
2021/09/16 07:02:35;;;;;;;;;22.00;21.00;;;;;21.86;42.44;101518.53;4873428;29;8912;-73
2021/09/16 07:05:31;;;;;;;;;24.00;23.25;;;;;21.85;39.54;101507.63;4862506;29;8874;-72
2021/09/16 07:08:16;;;;;;;;;24.00;23.50;;;;;22.06;39.39;101513.44;4861224;29;8905;-73
2021/09/16 07:11:12;;;;;;;;;28.00;25.50;;;;;22.42;40.64;101511.75;4873646;29;8885;-73
2021/09/16 07:14:07;;;;;;;;;26.25;25.25;;;;;22.24;38.68;101510.84;4862310;29;8908;-73
2021/09/16 07:17:03;;;;;;;;;17.75;17.75;;;;;22.21;38.26;101511.59;4860754;29;9674;-73
2021/09/16 07:19:45;;;;;;;;;15.00;15.00;;;;;22.43;37.41;101521.81;4861470;29;8877;-72
2021/09/16 07:22:40;;;;;;;;;16.25;15.75;;;;;22.80;37.97;101511.56;4872461;29;8857;-73
2021/09/16 07:25:36;;;;;;;;;23.25;19.75;;;;;23.15;39.16;101523.03;4860365;29;8887;-72
2021/09/16 07:28:35;;;;;;;;;23.50;18.75;;;;;23.19;36.79;101521.03;4862073;29;9652;-73
2021/09/16 07:31:23;;;;;;;;;17.00;16.25;;;;;23.22;37.46;101523.06;4874115;29;8889;-73
2021/09/16 07:33:50;;;;;;;;;8.00;8.00;;;;;23.33;36.35;101517.47;4861038;29;8857;-71
2021/09/16 07:36:47;;;;;;;;;12.40;11.60;;;;;23.46;36.95;101520.72;4861919;29;8915;-71
2021/09/16 07:39:43;;;;;;;;;7.80;7.80;;;;;23.37;36.26;101512.63;4860593;29;8952;-71
2021/09/16 07:42:10;;;;;;;;;10.00;8.00;;;;;23.04;35.25;101516.56;4860843;29;8911;-71
2021/09/16 07:45:07;;;;;;;;;12.00;12.00;;;;;23.35;36.58;101502.94;4861649;29;8889;-73
2021/09/16 07:48:02;;;;;;;;;10.20;10.20;;;;;23.51;36.46;101512.66;4861626;29;8889;-73
2021/09/16 07:50:58;;;;;;;;;7.60;7.40;;;;;23.37;35.15;101506.97;4861722;29;8911;-74
2021/09/16 07:53:54;;;;;;;;;8.00;8.00;;;;;23.53;34.90;101510.25;4861830;29;8849;-72
2021/09/16 07:56:26;;;;;;;;;7.60;7.60;;;;;23.66;36.02;101507.88;4860675;29;8885;-72
2021/09/16 07:58:53;;;;;;;;;10.40;10.40;;;;;23.89;36.07;101498.22;4874689;29;8929;-72
2021/09/16 08:01:22;;;;;;;;;12.75;12.25;;;;;24.05;35.04;101499.44;4860458;29;9655;-72
2021/09/16 08:03:50;;;;;;;;;10.60;10.60;;;;;23.99;35.09;101491.75;4874735;29;8877;-72
2021/09/16 08:06:19;;;;;;;;;10.00;10.00;;;;;24.06;36.13;101492.56;4860219;29;8881;-73
2021/09/16 08:08:49;;;;;;;;;13.60;13.60;;;;;24.06;34.82;101486.91;4873820;29;9657;-72
2021/09/16 08:11:18;;;;;;;;;12.40;12.40;;;;;23.98;33.83;101490.16;4860047;29;8877;-72
2021/09/16 08:13:46;;;;;;;;;7.60;7.40;;;;;24.26;33.63;101495.78;4860377;29;8889;-72
2021/09/16 08:16:14;;;;;;;;;8.80;8.80;;;;;24.23;34.62;101496.63;4874567;29;8961;-72
2021/09/16 08:18:43;;;;;;;;;9.40;9.40;;;;;24.03;33.82;101490.56;4859401;29;8873;-72
2021/09/16 08:21:13;;;;;;;;;11.80;10.60;;;;;23.75;35.16;101488.53;4860207;29;8972;-72
2021/09/16 08:23:44;;;;;;;;;5.00;5.00;;;;;23.84;36.23;101482.47;4860303;29;8870;-72
2021/09/16 08:26:12;;;;;;;;;10.60;10.40;;;;;23.93;34.74;101476.44;4860158;29;8873;-72
2021/09/16 08:29:08;;;;;;;;;4.80;4.80;;;;;24.03;34.26;101482.09;4861668;29;9639;-72
2021/09/16 08:32:04;;;;;;;;;6.60;6.60;;;;;24.39;33.54;101482.09;4861589;29;8991;-72
2021/09/16 08:35:00;;;;;;;;;4.00;4.00;;;;;24.59;32.60;101476.78;4861525;29;8854;-71
2021/09/16 08:37:55;;;;;;;;;9.20;7.20;;;;;24.24;33.30;101492.56;4861568;29;8861;-72
2021/09/16 08:40:51;;;;;;;;;10.00;9.20;;;;;24.47;34.70;101489.34;4861489;29;8872;-67
2021/09/16 08:43:49;;;;;;;;;6.40;6.40;;;;;24.63;33.72;101484.03;4870119;29;8908;-71
2021/09/16 08:46:46;;;;;;;;;9.80;9.60;;;;;24.98;34.35;101473.78;4861359;29;9008;-71
2021/09/16 08:49:44;;;;;;;;;7.00;7.00;;;;;24.66;33.48;101474.72;4860859;29;8873;-71
2021/09/16 08:52:43;;;;;;;;;4.80;3.80;;;;;24.86;32.59;101475.06;4871157;29;8865;-71
2021/09/16 08:55:39;;;;;;;;;3.00;3.00;;;;;24.59;32.30;101474.75;4861288;29;8869;-71
2021/09/16 08:58:12;;;;;;;;;9.20;9.20;;;;;24.56;31.94;101467.09;4862258;29;8936;-71
2021/09/16 09:01:07;;;;;;;;;11.20;11.20;;;;;24.29;32.20;101466.72;4864752;29;9059;-71
2021/09/16 09:04:04;;;;;;;;;12.00;11.20;;;;;24.43;32.78;101477.22;4863955;29;8884;-71
2021/09/16 09:07:04;;;;;;;;;11.80;11.80;;;;;24.46;32.84;101469.94;4864307;29;8885;-71
2021/09/16 09:09:32;;;;;;;;;12.60;11.80;;;;;25.02;32.59;101453.97;4863557;29;8845;-71
2021/09/16 09:12:12;;;;;;;;;8.20;8.20;;;;;25.04;32.85;101466.53;4863695;29;8889;-72
2021/09/16 09:15:00;;;;;;;;;7.40;6.20;;;;;25.20;31.64;101458.34;4863391;29;8881;-71
2021/09/16 09:17:33;;;;;;;;;9.60;8.40;;;;;25.54;31.82;101471.09;4863136;29;8861;-71
2021/09/16 09:20:08;;;;;;;;;3.00;3.00;;;;;25.52;30.83;101472.28;4862581;29;8873;-72
2021/09/16 09:22:56;;;;;;;;;2.80;2.80;;;;;25.85;30.67;101467.25;4863627;29;8916;-71
2021/09/16 09:25:28;;;;;;;;;17.60;15.80;;;;;25.96;30.19;101461.47;4863397;29;9553;-72
2021/09/16 09:27:56;;;;;;;;;4.00;4.00;;;;;25.93;29.97;101456.66;4863319;29;8886;-71
2021/09/16 09:30:30;;;;;;;;;9.00;9.00;;;;;26.21;31.37;101456.38;4863142;29;8888;-72
2021/09/16 09:33:31;;;;;;;;;6.20;6.20;;;;;26.34;30.08;101459.47;4863084;29;8885;-71
2021/09/16 09:36:27;;;;;;;;;9.80;8.80;;;;;25.99;30.46;101461.47;4862678;29;8856;-71
2021/09/16 09:39:26;;;;;;;;;9.80;9.80;;;;;26.00;30.37;101463.06;4884636;29;8857;-71
2021/09/16 09:42:24;;;;;;;;;9.60;9.60;;;;;26.38;29.68;101457.44;4864146;29;8884;-71
2021/09/16 09:45:20;;;;;;;;;10.20;10.20;;;;;26.55;29.71;101453.63;4862834;29;8977;-70
2021/09/16 09:48:17;;;;;;;;;12.20;12.20;;;;;26.72;29.97;101446.13;4884347;29;8869;-71
2021/09/16 09:51:14;;;;;;;;;7.20;7.00;;;;;26.34;29.50;101451.78;4864070;29;8865;-71
2021/09/16 09:54:32;;;;;;;;;7.20;7.20;;;;;26.58;28.98;101458.44;4862326;29;8849;-71
2021/09/16 09:57:27;;;;;;;;;49.20;21.00;;;;;26.86;28.25;101448.78;4863594;29;8873;-71
2021/09/16 09:59:55;;;;;;;;;5.20;5.20;;;;;26.85;28.83;101447.16;4877060;29;8872;-71
2021/09/16 10:02:53;;;;;;;;;3.40;3.40;;;;;27.18;28.46;101439.03;4884414;29;8955;-71
2021/09/16 10:05:21;;;;;;;;;8.40;6.60;;;;;26.95;28.61;101439.75;4876616;29;8862;-72
2021/09/16 10:07:50;;;;;;;;;3.40;3.20;;;;;26.32;27.12;101442.09;4862508;29;8892;-72
2021/09/16 10:10:51;;;;;;;;;7.60;6.40;;;;;26.78;27.70;101435.91;4863692;29;8865;-72
2021/09/16 10:13:19;;;;;;;;;5.80;5.80;;;;;27.24;27.00;101442.22;4862593;29;8892;-71
2021/09/16 10:15:53;;;;;;;;;9.40;3.40;;;;;27.25;26.27;101438.13;4862292;29;8965;-71
2021/09/16 10:18:41;;;;;;;;;2.00;2.00;;;;;26.88;25.68;101439.81;4862504;29;8889;-71
2021/09/16 10:21:09;;;;;;;;;0.20;0.20;;;;;26.92;26.36;101442.63;4862340;29;8869;-71
2021/09/16 10:23:37;;;;;;;;;2.00;1.00;;;;;27.04;26.04;101442.06;4862421;29;8923;-71
2021/09/16 10:26:05;;;;;;;;;1.20;1.20;;;;;26.94;26.53;101440.97;4862516;29;8904;-71
2021/09/16 10:28:37;;;;;;;;;2.00;2.00;;;;;27.08;26.93;101446.50;4862224;29;9670;-71
2021/09/16 10:31:20;;;;;;;;;2.00;2.00;;;;;27.75;27.35;101443.84;4891600;29;8881;-71
2021/09/16 10:33:48;;;;;;;;;1.60;1.60;;;;;27.66;26.11;101440.75;4862373;29;8941;-71
2021/09/16 10:36:16;;;;;;;;;2.00;2.00;;;;;27.59;26.93;101438.81;4862134;29;8857;-71
2021/09/16 10:38:49;;;;;;;;;2.80;2.80;;;;;27.33;26.16;101446.13;4862331;29;8980;-71
2021/09/16 10:41:22;;;;;;;;;2.00;2.00;;;;;27.58;26.30;101440.03;4862260;29;8857;-71
2021/09/16 10:43:57;;;;;;;;;64.60;35.00;;;;;27.79;25.35;101438.94;4862016;29;8892;-71
2021/09/16 10:46:29;;;;;;;;;3.00;3.00;;;;;28.08;25.25;101436.41;4891426;29;8896;-71
2021/09/16 10:49:27;;;;;;;;;3.00;3.00;;;;;28.24;25.72;101432.84;4863075;29;8933;-72
2021/09/16 10:52:24;;;;;;;;;7.20;7.20;;;;;28.13;26.44;101437.91;4862893;29;8877;-72
2021/09/16 10:55:38;;;;;;;;;8.60;7.80;;;;;28.07;25.61;101428.31;4862676;29;8903;-72
2021/09/16 10:58:34;;;;;;;;;9.20;9.20;;;;;28.18;26.11;101420.38;4862786;29;9654;-72
2021/09/16 11:01:52;;;;;;;;;5.80;5.80;;;;;28.56;25.63;101426.56;4872637;29;8959;-71
2021/09/16 11:04:54;;;;;;;;;4.00;4.00;;;;;28.26;25.91;101422.63;4861195;29;8979;-72
2021/09/16 11:07:55;;;;;;;;;2.40;2.40;;;;;28.18;25.25;101426.06;4862494;29;8891;-72
2021/09/16 11:10:54;;;;;;;;;4.20;3.40;;;;;28.60;24.83;101427.28;4861695;29;8996;-72
2021/09/16 11:13:52;;;;;;;;;3.40;3.40;;;;;28.40;24.63;101427.28;4862337;29;8888;-71
2021/09/16 11:16:53;;;;;;;;;4.00;4.00;;;;;28.58;25.18;101424.06;4860959;29;8909;-72
2021/09/16 11:19:45;;;;;;;;;10.60;10.60;;;;;28.58;24.89;101420.41;4861111;29;8980;-72
2021/09/16 11:22:21;;;;;;;;;6.00;6.00;;;;;29.02;24.70;101414.19;4875509;29;8953;-72
2021/09/16 11:24:55;;;;;;;;;7.40;7.40;;;;;28.98;24.64;101407.78;4861519;29;8877;-72
2021/09/16 11:27:39;;;;;;;;;6.00;6.00;;;;;29.06;24.12;101416.97;4861127;29;9723;-72
2021/09/16 11:30:15;;;;;;;;;7.20;7.20;;;;;29.32;24.54;101401.69;4875358;29;8880;-72
2021/09/16 11:32:44;;;;;;;;;5.20;5.20;;;;;29.26;23.66;101402.66;4861132;29;8901;-71
2021/09/16 11:35:18;;;;;;;;;9.80;9.80;;;;;29.59;23.35;101412.84;4861497;29;8872;-71
2021/09/16 11:38:15;;;;;;;;;6.00;6.00;;;;;29.67;23.69;101407.78;4860871;29;8893;-72
2021/09/16 11:41:11;;;;;;;;;1.60;1.60;;;;;28.64;23.70;101404.44;4862088;29;8885;-71
2021/09/16 11:44:08;;;;;;;;;5.60;5.60;;;;;29.26;23.83;101416.91;4860719;29;8958;-72
2021/09/16 11:47:04;;;;;;;;;14.80;11.80;;;;;28.83;23.27;101406.44;4862090;29;8895;-72
2021/09/16 11:49:46;;;;;;;;;6.80;6.80;;;;;29.02;24.01;101410.56;4877460;29;8868;-72
2021/09/16 11:52:18;;;;;;;;;6.00;5.40;;;;;28.42;24.02;101401.22;4879319;29;8879;-72
2021/09/16 11:55:15;;;;;;;;;8.00;8.00;;;;;28.76;23.29;101398.09;4879498;29;8864;-71
2021/09/16 11:58:19;;;;;;;;;6.40;6.40;;;;;28.66;23.14;101397.06;4878713;29;8982;-71
2021/09/16 12:01:16;;;;;;;;;8.40;7.40;;;;;29.15;22.85;101394.38;4878561;29;8863;-71
2021/09/16 12:04:12;;;;;;;;;6.20;6.20;;;;;29.20;22.15;101390.19;4865851;29;8864;-71
2021/09/16 12:07:08;;;;;;;;;9.00;8.40;;;;;29.23;23.20;101387.28;4878216;29;8891;-71
2021/09/16 12:10:00;;;;;;;;;8.80;8.80;;;;;28.89;22.12;101387.63;4879002;29;8986;-71
2021/09/16 12:12:57;;;;;;;;;9.20;8.40;;;;;29.43;21.52;101390.03;4877964;29;8894;-71
2021/09/16 12:16:11;;;;;;;;;10.40;8.60;;;;;29.48;23.24;101383.00;4878199;29;8890;-72
2021/09/16 12:19:11;;;;;;;;;7.80;7.80;;;;;29.21;22.07;101384.06;4877998;29;8894;-72
2021/09/16 12:22:07;;;;;;;;;13.00;11.60;;;;;29.66;21.60;101377.69;4877953;29;8878;-72
2021/09/16 12:25:03;;;;;;;;;14.80;13.00;;;;;29.57;21.96;101375.47;4877965;29;8875;-72
2021/09/16 12:28:08;;;;;;;;;7.80;7.80;;;;;29.76;21.11;101370.13;4877973;29;8967;-72
2021/09/16 12:31:05;;;;;;;;;5.60;5.60;;;;;29.78;20.70;101368.41;4877926;29;8876;-72
2021/09/16 12:34:06;;;;;;;;;19.80;17.20;;;;;30.08;21.11;101374.94;4869517;29;8876;-72
2021/09/16 12:36:36;;;;;;;;;12.80;11.20;;;;;30.29;21.62;101380.09;4865786;29;8872;-72
2021/09/16 12:39:13;;;;;;;;;14.20;14.20;;;;;30.00;21.26;101382.91;4882458;29;8960;-72
2021/09/16 12:42:09;;;;;;;;;16.60;16.60;;;;;30.17;20.87;101367.38;4881422;29;8918;-72
2021/09/16 12:45:09;;;;;;;;;23.20;21.80;;;;;30.13;21.11;101374.41;4880818;29;8998;-72
2021/09/16 12:48:13;;;;;;;;;14.60;14.60;;;;;29.97;21.09;101363.03;4881587;29;9594;-72
2021/09/16 12:51:10;;;;;;;;;23.20;21.80;;;;;29.79;21.39;101370.00;4869154;29;8905;-71
2021/09/16 12:54:19;;;;;;;;;20.40;20.40;;;;;29.78;21.96;101364.75;4881545;29;8878;-73
2021/09/16 12:57:30;;;;;;;;;22.60;22.60;;;;;29.57;21.39;101366.13;4868983;29;8880;-71